Time;durP1;ratioP1;P1;durP2;ratioP2;P2;SDS_P1;SDS_P2;PMS_P1;PMS_P2;Temp;Humidity;BMP_temperature;BMP_pressure;BME280_temperature;BME280_humidity;BME280_pressure;Samples;Min_cycle;Max_cycle;Signal;HPM_P1;HPM_P2
2023/04/27 00:00:44;;;;;;;5.57;2.60;;;4.40;99.90;;;;;;4027194;29;20078;-85
2023/04/27 00:02:46;;;;;;;8.88;2.75;;;4.70;99.90;;;;;;4041800;29;20447;-85
2023/04/27 00:04:48;;;;;;;4.50;2.75;;;5.50;99.90;;;;;;4041357;29;20053;-85
2023/04/27 00:06:50;;;;;;;6.82;2.85;;;4.70;99.90;;;;;;4041000;29;20053;-85
2023/04/27 00:08:52;;;;;;;5.43;2.85;;;4.70;99.90;;;;;;4054092;29;20048;-85
2023/04/27 00:10:57;;;;;;;7.20;3.38;;;4.80;99.90;;;;;;4042439;29;20077;-85
2023/04/27 00:12:58;;;;;;;4.32;2.53;;;3.70;99.90;;;;;;4039505;29;20064;-85
2023/04/27 00:15:01;;;;;;;4.80;2.65;;;4.70;99.90;;;;;;4014753;29;20550;-85
2023/04/27 00:17:01;;;;;;;11.65;3.22;;;4.70;99.90;;;;;;4029183;29;20101;-85
2023/04/27 00:19:05;;;;;;;5.93;2.78;;;4.80;99.90;;;;;;4029161;29;20054;-85
2023/04/27 00:21:10;;;;;;;6.32;2.60;;;4.60;99.90;;;;;;4012262;29;20411;-85
2023/04/27 00:23:12;;;;;;;2.35;1.55;;;4.70;99.90;;;;;;3997553;29;20127;-85
2023/04/27 00:25:15;;;;;;;6.25;1.60;;;4.60;99.90;;;;;;4043952;29;20541;-85
2023/04/27 00:27:17;;;;;;;3.95;1.20;;;5.50;99.90;;;;;;4027548;29;20050;-85
2023/04/27 00:29:21;;;;;;;2.55;1.42;;;6.00;99.90;;;;;;4059330;29;20108;-85
2023/04/27 00:31:22;;;;;;;4.55;1.40;;;4.70;99.90;;;;;;4069948;29;20044;-85
2023/04/27 00:33:23;;;;;;;5.55;2.17;;;4.70;99.90;;;;;;4055363;29;20052;-84
2023/04/27 00:35:25;;;;;;;2.97;1.83;;;4.80;99.90;;;;;;4039717;29;20053;-85
2023/04/27 00:37:27;;;;;;;2.65;1.60;;;4.80;99.90;;;;;;4065179;29;20044;-85
2023/04/27 00:39:29;;;;;;;4.90;1.65;;;6.30;99.90;;;;;;4028270;29;20128;-85
2023/04/27 00:41:31;;;;;;;2.50;1.52;;;5.20;99.90;;;;;;4044128;29;20057;-86
2023/04/27 00:43:42;;;;;;;2.38;1.30;;;5.40;99.90;;;;;;4031130;29;20125;-85
2023/04/27 00:45:44;;;;;;;5.22;1.52;;;3.90;99.90;;;;;;4041548;29;20100;-84
2023/04/27 00:47:46;;;;;;;7.45;1.73;;;4.90;99.90;;;;;;4024951;29;20132;-85
2023/04/27 00:49:46;;;;;;;3.70;1.73;;;4.90;99.90;;;;;;4026417;29;20053;-85
2023/04/27 00:51:48;;;;;;;3.25;1.80;;;5.60;99.90;;;;;;4025321;29;20050;-85
2023/04/27 00:53:52;;;;;;;3.70;2.25;;;4.90;99.90;;;;;;4026564;29;20053;-85
2023/04/27 00:55:55;;;;;;;5.10;2.10;;;4.80;99.90;;;;;;4041621;29;20053;-85
2023/04/27 00:57:56;;;;;;;5.55;1.70;;;6.10;99.90;;;;;;4025773;29;20061;-85
2023/04/27 01:00:05;;;;;;;3.90;1.80;;;4.80;99.90;;;;;;4026247;29;20090;-85
2023/04/27 01:02:06;;;;;;;4.68;1.75;;;4.70;99.90;;;;;;4030064;29;20041;-84
2023/04/27 01:04:08;;;;;;;4.07;2.47;;;5.30;99.90;;;;;;4042854;29;20101;-85
2023/04/27 01:06:10;;;;;;;2.50;1.70;;;4.90;99.90;;;;;;4025298;29;20085;-86
2023/04/27 01:08:17;;;;;;;4.10;2.42;;;4.70;99.90;;;;;;4025361;29;20056;-85
2023/04/27 01:10:20;;;;;;;3.40;1.50;;;4.60;99.90;;;;;;4024644;29;20128;-85
2023/04/27 01:12:22;;;;;;;6.47;2.17;;;4.60;99.90;;;;;;4024394;29;20046;-85
2023/04/27 01:14:23;;;;;;;3.53;2.30;;;4.60;99.90;;;;;;4031966;29;20057;-85
2023/04/27 01:16:25;;;;;;;5.45;2.00;;;6.10;99.90;;;;;;4039893;29;20041;-85
2023/04/27 01:18:26;;;;;;;5.30;1.95;;;4.40;99.90;;;;;;4055123;29;20056;-85
2023/04/27 01:20:31;;;;;;;2.97;1.90;;;4.40;99.90;;;;;;4053185;29;20105;-85
2023/04/27 01:22:32;;;;;;;6.07;2.00;;;4.50;99.90;;;;;;4023806;29;20138;-85
2023/04/27 01:24:33;;;;;;;3.63;2.13;;;4.40;99.90;;;;;;4057601;29;20093;-85
2023/04/27 01:26:35;;;;;;;4.22;2.30;;;4.40;99.90;;;;;;4055755;29;20529;-85
2023/04/27 01:28:38;;;;;;;5.10;2.08;;;4.20;99.90;;;;;;4025706;29;20664;-86
2023/04/27 01:30:40;;;;;;;6.32;2.05;;;4.30;99.90;;;;;;4057007;29;20049;-85
2023/04/27 01:32:45;;;;;;;3.55;2.17;;;5.70;99.90;;;;;;4057139;29;20486;-84
2023/04/27 01:34:49;;;;;;;4.65;2.33;;;4.20;99.90;;;;;;4057818;29;20085;-86
2023/04/27 01:36:50;;;;;;;4.55;2.42;;;4.20;99.90;;;;;;4024886;29;20053;-86
2023/04/27 01:38:52;;;;;;;6.75;2.17;;;4.10;99.90;;;;;;4052730;29;20139;-85
2023/04/27 01:40:54;;;;;;;4.15;2.00;;;4.10;99.90;;;;;;4039948;29;20048;-84
2023/04/27 01:42:58;;;;;;;5.60;2.92;;;4.10;99.90;;;;;;4041291;29;20060;-84
2023/04/27 01:44:59;;;;;;;5.93;2.42;;;4.10;99.90;;;;;;4040939;29;20049;-83
2023/04/27 01:47:02;;;;;;;4.18;2.65;;;4.00;99.90;;;;;;4039138;29;20053;-84
2023/04/27 01:49:03;;;;;;;3.97;2.55;;;4.00;99.90;;;;;;4057234;29;20051;-84
2023/04/27 01:51:06;;;;;;;6.30;2.53;;;4.10;99.90;;;;;;4056454;29;20108;-84
2023/04/27 01:53:08;;;;;;;7.10;2.30;;;4.50;99.90;;;;;;4056627;29;20047;-84
2023/04/27 01:55:10;;;;;;;7.15;2.72;;;4.00;99.90;;;;;;4042964;29;20617;-84
2023/04/27 01:57:13;;;;;;;6.10;3.13;;;3.90;99.90;;;;;;4056713;29;20056;-84
2023/04/27 01:59:13;;;;;;;5.80;3.25;;;3.90;99.90;;;;;;4055818;29;20465;-84
2023/04/27 02:01:15;;;;;;;5.05;3.17;;;4.00;99.90;;;;;;4038923;29;20060;-84
2023/04/27 02:03:17;;;;;;;7.32;3.03;;;4.20;99.90;;;;;;4057088;29;20053;-84
2023/04/27 02:05:19;;;;;;;5.47;2.80;;;5.30;99.90;;;;;;4038620;29;20053;-84
2023/04/27 02:07:21;;;;;;;6.05;2.92;;;5.10;99.90;;;;;;4040235;29;20045;-84
2023/04/27 02:09:23;;;;;;;11.05;2.83;;;3.80;99.90;;;;;;4055739;29;20610;-84
2023/04/27 02:11:26;;;;;;;5.25;2.83;;;3.80;99.90;;;;;;4056765;29;20052;-84
2023/04/27 02:13:27;;;;;;;5.57;2.85;;;3.90;99.90;;;;;;4039695;29;20060;-84
2023/04/27 02:15:29;;;;;;;7.75;3.25;;;4.70;99.90;;;;;;4011906;29;20121;-85
2023/04/27 02:17:32;;;;;;;6.10;2.85;;;5.10;99.90;;;;;;4040240;29;20036;-85
2023/04/27 02:19:35;;;;;;;5.10;3.17;;;2.90;99.90;;;;;;4008877;29;20081;-85
2023/04/27 02:21:39;;;;;;;5.60;2.92;;;3.70;99.90;;;;;;4041327;29;20045;-84
2023/04/27 02:23:40;;;;;;;5.53;2.63;;;3.70;99.90;;;;;;4041278;29;20080;-84
2023/04/27 02:25:47;;;;;;;5.47;2.92;;;5.20;99.90;;;;;;4024229;29;20041;-84
2023/04/27 02:27:49;;;;;;;5.35;2.58;;;3.60;99.90;;;;;;4041226;29;20048;-84
2023/04/27 02:29:51;;;;;;;11.65;2.88;;;4.70;99.90;;;;;;4022916;29;20109;-85
2023/04/27 02:31:56;;;;;;;11.38;4.28;;;3.60;99.90;;;;;;4049898;29;20068;-85
2023/04/27 02:33:58;;;;;;;8.10;3.30;;;3.60;99.90;;;;;;4025668;29;20053;-85
2023/04/27 02:36:00;;;;;;;6.85;2.92;;;3.60;99.90;;;;;;4040811;29;20121;-85
2023/04/27 02:38:01;;;;;;;11.65;3.72;;;3.60;99.90;;;;;;4009473;29;20054;-85
2023/04/27 02:40:05;;;;;;;6.75;3.58;;;3.50;99.90;;;;;;4008598;29;20053;-85
2023/04/27 02:42:07;;;;;;;5.70;3.17;;;3.60;99.90;;;;;;4041758;29;20517;-85
2023/04/27 02:44:14;;;;;;;9.48;3.10;;;3.50;99.90;;;;;;4024088;29;20534;-85
2023/04/27 02:46:17;;;;;;;6.30;3.20;;;3.50;99.90;;;;;;4040488;29;20049;-85
2023/04/27 02:48:19;;;;;;;9.95;3.50;;;3.50;99.90;;;;;;4024409;29;20112;-85
2023/04/27 02:50:20;;;;;;;6.63;2.83;;;3.50;99.90;;;;;;4025163;29;20057;-85
2023/04/27 02:52:23;;;;;;;6.53;3.20;;;3.50;99.90;;;;;;4023997;29;20137;-84
2023/04/27 02:54:24;;;;;;;9.80;3.50;;;3.40;99.90;;;;;;4024257;29;20082;-85
2023/04/27 02:56:27;;;;;;;6.60;2.90;;;3.40;99.90;;;;;;4055783;29;20109;-85
2023/04/27 02:58:28;;;;;;;7.38;3.05;;;3.40;99.90;;;;;;4056932;29;20041;-84
2023/04/27 03:00:30;;;;;;;11.27;4.43;;;3.30;99.90;;;;;;4040405;29;20157;-85
2023/04/27 03:02:32;;;;;;;7.38;3.25;;;3.40;99.90;;;;;;4024411;29;20144;-84
2023/04/27 03:04:35;;;;;;;10.18;4.00;;;4.20;99.90;;;;;;4023698;29;20068;-84
2023/04/27 03:06:37;;;;;;;6.38;3.75;;;3.30;99.90;;;;;;4039975;29;20080;-84
2023/04/27 03:08:37;;;;;;;6.05;3.70;;;3.20;99.90;;;;;;4055538;29;20490;-85
2023/04/27 03:10:39;;;;;;;5.65;2.90;;;3.10;99.90;;;;;;4045540;29;20064;-84
2023/04/27 03:12:43;;;;;;;7.70;4.18;;;3.10;99.90;;;;;;4041326;29;20442;-84
2023/04/27 03:14:45;;;;;;;8.68;3.70;;;3.10;99.90;;;;;;4034652;29;20116;-84
2023/04/27 03:16:45;;;;;;;8.43;3.25;;;4.80;99.90;;;;;;4025119;29;20101;-85
2023/04/27 03:18:46;;;;;;;7.18;3.17;;;4.00;99.90;;;;;;4024675;29;20041;-85
2023/04/27 03:20:48;;;;;;;8.73;3.42;;;3.70;99.90;;;;;;4041502;29;20049;-84
2023/04/27 03:22:55;;;;;;;8.40;3.60;;;3.10;99.90;;;;;;4009660;29;20089;-85
2023/04/27 03:24:58;;;;;;;6.45;3.67;;;3.00;99.90;;;;;;4024579;29;20037;-85
2023/04/27 03:27:02;;;;;;;7.88;3.35;;;2.40;99.90;;;;;;4010125;29;20058;-83
2023/04/27 03:29:03;;;;;;;6.53;3.28;;;3.00;99.90;;;;;;4039262;29;20053;-84
2023/04/27 03:31:08;;;;;;;9.00;3.45;;;3.10;99.90;;;;;;4010638;29;20058;-84
2023/04/27 03:33:09;;;;;;;6.53;4.00;;;2.90;99.90;;;;;;4009121;29;20141;-84
2023/04/27 03:35:11;;;;;;;7.90;3.13;;;3.00;99.90;;;;;;4041480;29;20052;-84
2023/04/27 03:37:13;;;;;;;7.97;3.92;;;2.90;99.90;;;;;;4040680;29;20473;-84
2023/04/27 03:39:15;;;;;;;7.57;3.90;;;2.90;99.90;;;;;;4024627;29;20594;-84
2023/04/27 03:41:16;;;;;;;6.28;3.83;;;2.90;99.90;;;;;;4024739;29;20047;-84
2023/04/27 03:43:18;;;;;;;9.13;4.45;;;1.60;99.90;;;;;;4040699;29;20071;-84
2023/04/27 03:45:24;;;;;;;6.32;3.40;;;3.00;99.90;;;;;;4041894;29;20136;-84
2023/04/27 03:47:26;;;;;;;9.32;4.60;;;2.90;99.90;;;;;;4040283;29;20091;-84
2023/04/27 03:49:29;;;;;;;9.52;4.22;;;2.90;99.90;;;;;;4009251;29;20046;-84
2023/04/27 03:51:32;;;;;;;8.73;3.90;;;2.30;99.90;;;;;;4027366;29;20091;-85
2023/04/27 03:53:34;;;;;;;7.35;3.97;;;3.00;99.90;;;;;;4043445;29;20053;-84
2023/04/27 03:55:41;;;;;;;8.20;4.45;;;3.00;99.90;;;;;;4028097;29;20403;-83
2023/04/27 03:57:42;;;;;;;8.00;3.72;;;2.90;99.90;;;;;;4054730;29;20123;-83
2023/04/27 03:59:50;;;;;;;8.18;3.65;;;3.40;99.90;;;;;;4043067;29;20052;-84
2023/04/27 04:01:52;;;;;;;8.30;3.75;;;3.00;99.90;;;;;;4057756;29;20040;-85
2023/04/27 04:03:53;;;;;;;8.65;4.25;;;3.00;99.90;;;;;;4011749;29;20133;-84
2023/04/27 04:05:55;;;;;;;10.98;4.72;;;3.90;99.90;;;;;;4027979;29;20056;-84
2023/04/27 04:07:58;;;;;;;8.35;4.15;;;3.00;99.90;;;;;;4042295;29;20052;-86
2023/04/27 04:10:01;;;;;;;8.10;4.38;;;3.00;99.90;;;;;;4027520;29;20061;-85
2023/04/27 04:12:03;;;;;;;7.82;3.75;;;3.10;99.90;;;;;;4011472;29;20054;-84
2023/04/27 04:14:06;;;;;;;12.30;4.57;;;3.10;99.90;;;;;;4031372;29;20061;-85
2023/04/27 04:16:08;;;;;;;7.65;4.05;;;3.10;99.90;;;;;;4058511;29;20107;-84
2023/04/27 04:18:13;;;;;;;11.40;5.32;;;3.10;99.90;;;;;;4059160;29;20509;-84
2023/04/27 04:20:15;;;;;;;8.90;4.38;;;3.10;99.90;;;;;;4059414;29;20108;-84
2023/04/27 04:22:16;;;;;;;10.18;4.30;;;3.10;99.90;;;;;;4058597;29;20501;-84
2023/04/27 04:24:20;;;;;;;9.38;4.22;;;4.00;99.90;;;;;;4042584;29;20096;-84
2023/04/27 04:26:22;;;;;;;9.48;4.75;;;3.10;99.90;;;;;;4041913;29;20057;-84
2023/04/27 04:28:24;;;;;;;11.70;5.25;;;3.70;99.90;;;;;;4057396;29;20052;-85
2023/04/27 04:30:29;;;;;;;8.77;4.40;;;4.20;99.90;;;;;;4058502;29;20081;-85
2023/04/27 04:32:32;;;;;;;13.18;4.60;;;3.20;99.90;;;;;;4056502;29;20049;-85
2023/04/27 04:34:37;;;;;;;12.43;4.53;;;3.10;99.90;;;;;;4042521;29;20490;-85
2023/04/27 04:36:38;;;;;;;10.10;4.60;;;3.10;99.90;;;;;;4043272;29;20056;-84
2023/04/27 04:38:40;;;;;;;9.57;4.93;;;3.80;99.90;;;;;;4058332;29;20052;-85
2023/04/27 04:40:41;;;;;;;9.98;5.32;;;3.90;99.90;;;;;;4058812;29;20047;-85
2023/04/27 04:42:46;;;;;;;15.50;5.45;;;3.20;99.90;;;;;;4044133;29;20053;-85
2023/04/27 04:44:48;;;;;;;8.55;5.05;;;3.20;99.90;;;;;;4042899;29;20076;-86
2023/04/27 04:46:50;;;;;;;10.05;4.72;;;2.40;99.90;;;;;;4011891;29;20058;-85
2023/04/27 04:48:52;;;;;;;11.65;5.25;;;3.40;99.90;;;;;;4010927;29;20050;-85
2023/04/27 04:50:53;;;;;;;9.80;5.20;;;3.20;99.90;;;;;;4011536;29;20058;-85
2023/04/27 04:52:54;;;;;;;12.52;6.25;;;4.20;99.90;;;;;;4043735;29;20080;-82
2023/04/27 04:54:56;;;;;;;12.52;4.95;;;3.30;99.90;;;;;;4043302;29;20057;-84
2023/04/27 04:56:58;;;;;;;10.30;5.32;;;3.20;99.90;;;;;;4053536;29;20052;-85
2023/04/27 04:58:59;;;;;;;10.48;5.20;;;2.10;99.90;;;;;;4035148;29;20049;-82
2023/04/27 05:01:01;;;;;;;8.05;4.60;;;2.60;99.90;;;;;;4050821;29;20044;-83
2023/04/27 05:03:02;;;;;;;11.93;5.43;;;3.40;99.90;;;;;;4065207;29;20045;-84
2023/04/27 05:05:03;;;;;;;8.32;4.70;;;3.20;99.90;;;;;;4033863;29;20105;-86
2023/04/27 05:07:10;;;;;;;11.82;5.68;;;3.30;99.90;;;;;;4012760;29;20117;-85
2023/04/27 05:09:11;;;;;;;10.70;4.65;;;2.70;99.90;;;;;;4012465;29;20050;-84
2023/04/27 05:11:18;;;;;;;11.02;4.78;;;3.40;99.90;;;;;;4042775;29;20052;-84
2023/04/27 05:13:20;;;;;;;8.63;4.93;;;3.20;99.90;;;;;;4022160;29;20061;-84
2023/04/27 05:15:21;;;;;;;10.32;4.90;;;4.10;99.90;;;;;;4013030;29;20091;-85
2023/04/27 05:17:22;;;;;;;10.73;4.93;;;2.20;99.90;;;;;;4037809;29;20061;-85
2023/04/27 05:19:28;;;;;;;9.45;5.57;;;3.40;99.90;;;;;;4010555;29;20046;-84
2023/04/27 05:21:28;;;;;;;17.42;5.25;;;3.50;99.90;;;;;;4025011;29;20100;-85
2023/04/27 05:23:38;;;;;;;10.30;4.97;;;3.50;99.90;;;;;;4033298;29;20049;-84
2023/04/27 05:25:42;;;;;;;8.60;4.63;;;3.60;99.90;;;;;;4054272;29;20505;-84
2023/04/27 05:27:44;;;;;;;8.65;4.22;;;5.10;99.90;;;;;;4056783;29;20422;-85
2023/04/27 05:29:45;;;;;;;10.95;3.80;;;3.80;99.90;;;;;;4025484;29;20490;-86
2023/04/27 05:31:45;;;;;;;8.43;3.47;;;4.80;99.90;;;;;;4040846;29;20057;-85
2023/04/27 05:33:47;;;;;;;8.57;3.65;;;4.30;99.90;;;;;;4026060;29;20067;-85
2023/04/27 05:35:50;;;;;;;9.27;4.15;;;4.00;99.90;;;;;;4046343;29;20103;-85
2023/04/27 05:37:51;;;;;;;11.07;3.05;;;4.00;99.90;;;;;;4026588;29;20073;-86
2023/04/27 05:39:58;;;;;;;6.03;3.30;;;2.70;99.90;;;;;;4026250;29;20052;-85
2023/04/27 05:42:06;;;;;;;16.48;3.25;;;4.20;99.90;;;;;;4025984;29;20057;-86
2023/04/27 05:44:14;;;;;;;7.97;3.63;;;4.20;99.90;;;;;;4026107;29;20057;-85
2023/04/27 05:46:16;;;;;;;16.70;4.40;;;4.40;99.90;;;;;;4042353;29;20078;-84
2023/04/27 05:48:18;;;;;;;5.75;3.03;;;6.00;99.90;;;;;;4010346;29;20071;-85
2023/04/27 05:50:21;;;;;;;8.30;2.97;;;3.70;99.90;;;;;;4042434;29;20053;-86
2023/04/27 05:52:28;;;;;;;5.63;2.75;;;4.60;99.90;;;;;;4026771;29;20114;-85
2023/04/27 05:54:35;;;;;;;5.30;2.97;;;4.70;99.90;;;;;;4041963;29;20080;-85
2023/04/27 05:56:36;;;;;;;7.53;3.45;;;4.70;99.90;;;;;;4010697;29;20096;-85
2023/04/27 05:58:40;;;;;;;6.45;2.95;;;4.80;99.90;;;;;;4010597;29;20078;-85
2023/04/27 06:00:41;;;;;;;8.77;3.58;;;4.80;99.90;;;;;;4025429;29;20049;-85
2023/04/27 06:02:41;;;;;;;6.10;3.28;;;4.80;99.90;;;;;;4042547;29;20048;-85
2023/04/27 06:04:43;;;;;;;5.28;2.85;;;4.70;99.90;;;;;;4010014;29;20049;-85
2023/04/27 06:06:45;;;;;;;5.65;2.80;;;4.70;99.90;;;;;;4026580;29;20051;-85
2023/04/27 06:08:47;;;;;;;10.85;3.00;;;6.20;99.90;;;;;;4041517;29;20049;-85
2023/04/27 06:10:52;;;;;;;7.88;3.08;;;4.90;99.90;;;;;;4025986;29;20060;-85
2023/04/27 06:12:53;;;;;;;8.05;2.95;;;5.10;99.90;;;;;;4009803;29;20536;-85
2023/04/27 06:14:54;;;;;;;7.00;3.13;;;5.40;99.90;;;;;;4038017;29;20053;-86
2023/04/27 06:17:01;;;;;;;8.18;3.15;;;5.10;99.90;;;;;;4025625;29;20062;-85
2023/04/27 06:19:03;;;;;;;5.88;3.00;;;6.60;99.90;;;;;;4040837;29;20041;-85
2023/04/27 06:21:05;;;;;;;5.90;2.42;;;5.00;99.90;;;;;;4058117;29;20108;-85
2023/04/27 06:23:07;;;;;;;9.18;3.30;;;5.10;99.90;;;;;;4057977;29;20119;-84
2023/04/27 06:25:08;;;;;;;5.85;3.00;;;5.10;99.90;;;;;;4025186;29;20237;-85
2023/04/27 06:27:10;;;;;;;7.13;2.83;;;6.60;99.90;;;;;;4057104;29;20056;-85
2023/04/27 06:29:11;;;;;;;5.75;2.92;;;5.30;99.90;;;;;;4040964;29;20053;-85
2023/04/27 06:31:12;;;;;;;9.32;3.45;;;5.30;99.90;;;;;;4026268;29;20546;-85
2023/04/27 06:33:14;;;;;;;5.18;2.42;;;5.50;99.90;;;;;;4024575;29;20480;-85
2023/04/27 06:35:17;;;;;;;3.88;2.25;;;5.60;99.90;;;;;;4025535;29;20045;-84
2023/04/27 06:37:18;;;;;;;7.13;2.10;;;6.10;99.90;;;;;;4040248;29;20053;-83
2023/04/27 06:39:20;;;;;;;5.05;2.10;;;5.80;99.90;;;;;;4024103;29;20060;-85
2023/04/27 06:41:24;;;;;;;7.93;2.45;;;5.50;99.90;;;;;;4025192;29;20126;-85
2023/04/27 06:43:26;;;;;;;6.13;2.00;;;6.10;99.90;;;;;;4025541;29;20049;-86
2023/04/27 06:45:27;;;;;;;3.30;2.08;;;6.20;99.90;;;;;;4041252;29;20140;-85
2023/04/27 06:47:29;;;;;;;4.53;1.98;;;7.00;99.90;;;;;;4039422;29;20057;-85
2023/04/27 06:49:31;;;;;;;4.82;1.92;;;7.00;99.90;;;;;;4024972;29;20081;-85
2023/04/27 06:51:31;;;;;;;7.20;2.03;;;6.30;99.90;;;;;;4039641;29;20049;-85
2023/04/27 06:53:33;;;;;;;5.50;2.03;;;6.60;99.90;;;;;;4039987;29;20177;-85
2023/04/27 06:55:34;;;;;;;4.30;1.90;;;6.80;99.90;;;;;;4039774;29;20049;-85
2023/04/27 06:57:36;;;;;;;3.08;1.95;;;6.80;99.90;;;;;;4024692;29;20416;-85
2023/04/27 06:59:36;;;;;;;6.18;1.55;;;7.00;99.90;;;;;;4041066;29;20064;-85
2023/04/27 07:01:37;;;;;;;8.07;1.60;;;6.10;99.90;;;;;;4023360;29;20061;-86
2023/04/27 07:03:38;;;;;;;4.30;1.90;;;7.10;99.90;;;;;;4040522;29;20064;-86
2023/04/27 07:05:40;;;;;;;4.53;1.45;;;7.20;99.90;;;;;;4055381;29;20073;-85
2023/04/27 07:07:41;;;;;;;3.20;1.33;;;7.30;99.90;;;;;;4024821;29;20070;-85
2023/04/27 07:09:42;;;;;;;3.67;1.35;;;7.10;99.90;;;;;;4056270;29;20104;-85
2023/04/27 07:11:47;;;;;;;16.05;2.10;;;7.40;99.90;;;;;;4039190;29;20518;-85
2023/04/27 07:13:51;;;;;;;6.45;1.52;;;7.40;99.90;;;;;;4035464;29;20085;-85
2023/04/27 07:15:58;;;;;;;2.97;1.35;;;7.00;99.90;;;;;;4007668;29;20064;-85
2023/04/27 07:18:00;;;;;;;4.53;1.40;;;7.60;99.90;;;;;;4009336;29;20045;-85
2023/04/27 07:20:02;;;;;;;3.85;2.15;;;7.70;99.90;;;;;;4017518;29;20578;-86
2023/04/27 07:22:04;;;;;;;6.25;2.35;;;7.70;99.90;;;;;;4039818;29;20113;-85
2023/04/27 07:24:05;;;;;;;4.75;1.70;;;7.90;99.90;;;;;;4033231;29;20057;-85
2023/04/27 07:26:08;;;;;;;5.50;1.40;;;7.10;99.90;;;;;;4072523;29;20053;-86
2023/04/27 07:28:10;;;;;;;7.13;1.50;;;8.60;99.90;;;;;;4057846;29;20124;-87
2023/04/27 07:30:13;;;;;;;4.47;2.05;;;8.40;99.90;;;;;;4041457;29;20045;-85
2023/04/27 07:32:14;;;;;;;3.42;1.58;;;8.60;99.90;;;;;;4042595;29;20117;-86
2023/04/27 07:34:16;;;;;;;3.67;1.23;;;8.70;99.90;;;;;;4073510;29;20123;-86
2023/04/27 07:36:18;;;;;;;2.92;1.23;;;8.70;99.90;;;;;;4057902;29;20458;-86
2023/04/27 07:38:19;;;;;;;6.43;1.40;;;8.70;99.90;;;;;;4042350;29;20053;-86
2023/04/27 07:40:23;;;;;;;1.92;1.15;;;8.70;99.90;;;;;;4041433;29;20109;-86
2023/04/27 07:42:23;;;;;;;4.25;1.48;;;9.10;99.90;;;;;;4074902;29;20413;-86
2023/04/27 07:44:24;;;;;;;4.60;1.98;;;8.60;99.90;;;;;;4073014;29;20076;-86
2023/04/27 07:46:25;;;;;;;2.13;1.05;;;8.80;99.90;;;;;;4057839;29;20572;-86
2023/04/27 07:48:30;;;;;;;2.30;1.30;;;8.90;99.90;;;;;;4073838;29;20051;-86
2023/04/27 07:50:32;;;;;;;4.15;1.50;;;8.90;99.90;;;;;;4057583;29;20053;-86
2023/04/27 07:52:33;;;;;;;6.90;1.58;;;9.00;99.90;;;;;;4058137;29;20059;-85
2023/04/27 07:54:35;;;;;;;1.98;1.13;;;9.00;99.90;;;;;;4056926;29;20527;-86
2023/04/27 07:56:41;;;;;;;3.92;1.60;;;9.10;99.90;;;;;;4042165;29;20084;-86
2023/04/27 07:58:42;;;;;;;3.35;1.40;;;9.30;99.90;;;;;;4041251;29;20057;-85
2023/04/27 08:00:43;;;;;;;1.95;1.35;;;9.60;99.90;;;;;;4074479;29;20052;-86
2023/04/27 08:02:45;;;;;;;5.85;1.38;;;9.60;99.90;;;;;;4073493;29;20040;-86
2023/04/27 08:04:48;;;;;;;3.28;1.42;;;9.70;99.90;;;;;;4041230;29;20071;-86
2023/04/27 08:06:52;;;;;;;2.47;1.30;;;9.60;99.90;;;;;;4074658;29;20048;-86
2023/04/27 08:08:57;;;;;;;3.10;1.40;;;9.70;99.90;;;;;;4040782;29;20061;-86
2023/04/27 08:10:57;;;;;;;4.00;1.45;;;9.70;99.90;;;;;;4057743;29;20053;-86
2023/04/27 08:12:58;;;;;;;1.33;1.15;;;9.80;99.90;;;;;;4057045;29;20510;-86
2023/04/27 08:15:02;;;;;;;3.67;1.13;;;10.00;99.90;;;;;;4048613;29;20184;-86
2023/04/27 08:17:06;;;;;;;2.58;1.52;;;10.00;99.90;;;;;;4026302;29;20525;-87
2023/04/27 08:19:09;;;;;;;4.20;1.40;;;10.00;99.40;;;;;;4024498;29;20114;-87
2023/04/27 08:21:10;;;;;;;4.78;1.60;;;10.10;99.90;;;;;;4009953;29;20061;-88
2023/04/27 08:23:11;;;;;;;4.25;1.73;;;10.10;99.40;;;;;;4024451;29;20061;-87
2023/04/27 08:25:12;;;;;;;5.50;1.60;;;10.20;98.60;;;;;;4042077;29;20045;-87
2023/04/27 08:27:12;;;;;;;3.47;1.42;;;10.40;99.10;;;;;;4024664;29;20525;-87
2023/04/27 08:29:14;;;;;;;10.30;1.23;;;10.50;98.50;;;;;;4041112;29;20041;-86
2023/04/27 08:31:16;;;;;;;3.90;1.48;;;10.70;97.90;;;;;;4041210;29;20083;-85
2023/04/27 08:33:19;;;;;;;2.47;1.20;;;10.70;96.90;;;;;;4039521;29;20059;-86
2023/04/27 08:35:21;;;;;;;4.38;2.10;;;10.90;96.50;;;;;;4024621;29;20034;-86
2023/04/27 08:37:22;;;;;;;3.30;1.45;;;10.70;96.30;;;;;;4039998;29;20067;-86
2023/04/27 08:39:23;;;;;;;3.35;1.25;;;10.70;96.40;;;;;;4024314;29;20585;-86
2023/04/27 08:41:24;;;;;;;3.63;1.42;;;10.70;95.10;;;;;;4055361;29;20127;-87
2023/04/27 08:43:26;;;;;;;2.60;1.15;;;10.80;95.70;;;;;;4010513;29;20050;-86
2023/04/27 08:45:28;;;;;;;2.53;1.30;;;10.80;94.80;;;;;;4025484;29;20045;-86
2023/04/27 08:47:30;;;;;;;3.10;1.48;;;10.80;94.50;;;;;;4040991;29;20053;-86
2023/04/27 08:49:32;;;;;;;3.30;1.40;;;10.90;94.20;;;;;;4055634;29;20048;-85
2023/04/27 08:51:33;;;;;;;2.22;1.02;;;11.40;94.00;;;;;;4023853;29;20057;-87
2023/04/27 08:53:34;;;;;;;3.15;1.75;;;11.10;94.20;;;;;;4040324;29;20057;-86
2023/04/27 08:55:35;;;;;;;1.95;1.17;;;10.90;93.90;;;;;;4040994;29;20116;-86
2023/04/27 08:57:36;;;;;;;2.78;1.20;;;11.40;93.00;;;;;;4056691;29;20477;-87
2023/04/27 08:59:39;;;;;;;2.47;1.70;;;11.40;93.30;;;;;;4024775;29;20109;-87
2023/04/27 09:01:47;;;;;;;2.88;1.40;;;11.60;93.10;;;;;;4054451;29;20338;-87
2023/04/27 09:04:04;;;;;;;3.53;1.40;;;11.60;93.00;;;;;;4009483;29;20034;-86
2023/04/27 09:06:06;;;;;;;4.93;1.48;;;11.80;91.70;;;;;;4041158;29;20379;-85
2023/04/27 09:08:09;;;;;;;3.40;1.77;;;11.00;91.50;;;;;;4039314;29;20481;-86
2023/04/27 09:10:11;;;;;;;4.38;1.45;;;11.70;91.70;;;;;;4040733;29;20049;-85
2023/04/27 09:12:19;;;;;;;3.00;1.38;;;11.80;91.20;;;;;;4039525;29;20447;-87
2023/04/27 09:14:23;;;;;;;3.50;1.85;;;12.10;91.50;;;;;;4041782;29;20112;-86
2023/04/27 09:16:25;;;;;;;3.05;1.42;;;12.30;91.10;;;;;;4041513;29;20071;-87
2023/04/27 09:18:25;;;;;;;4.35;2.10;;;12.20;90.90;;;;;;4008634;29;20685;-86
2023/04/27 09:20:27;;;;;;;4.63;2.15;;;12.30;90.50;;;;;;4024831;29;20069;-86
2023/04/27 09:22:28;;;;;;;3.47;1.77;;;12.40;89.80;;;;;;4022446;29;20566;-87
2023/04/27 09:24:29;;;;;;;5.97;1.98;;;12.20;88.70;;;;;;4041105;29;20045;-87
2023/04/27 09:26:31;;;;;;;3.97;1.80;;;12.40;88.40;;;;;;4023856;29;20065;-86
2023/04/27 09:28:33;;;;;;;5.22;2.38;;;12.40;88.70;;;;;;4023890;29;20426;-86
2023/04/27 09:30:35;;;;;;;4.18;1.60;;;12.50;86.60;;;;;;4038895;29;20548;-86
2023/04/27 09:32:38;;;;;;;7.93;2.17;;;12.60;88.20;;;;;;4007898;29;20053;-87
2023/04/27 09:34:40;;;;;;;6.45;2.03;;;12.60;87.70;;;;;;4009113;29;20050;-86
2023/04/27 09:36:41;;;;;;;7.18;2.20;;;12.70;87.40;;;;;;4007435;29;20140;-86
2023/04/27 09:38:42;;;;;;;4.97;1.95;;;13.00;88.80;;;;;;4040354;29;20041;-87
2023/04/27 09:40:42;;;;;;;5.80;2.30;;;13.20;89.20;;;;;;4008072;29;20050;-86
2023/04/27 09:42:43;;;;;;;5.07;2.45;;;13.10;87.20;;;;;;4009027;29;20434;-86
2023/04/27 09:44:47;;;;;;;5.68;1.80;;;13.10;86.60;;;;;;4008620;29;20137;-86
2023/04/27 09:46:51;;;;;;;6.95;2.35;;;12.90;85.10;;;;;;4007956;29;20061;-86
2023/04/27 09:48:55;;;;;;;4.90;2.08;;;13.00;84.40;;;;;;4040683;29;20068;-87
2023/04/27 09:50:57;;;;;;;5.38;1.83;;;12.90;84.80;;;;;;4007447;29;20046;-87
2023/04/27 09:52:57;;;;;;;5.53;1.85;;;12.90;85.60;;;;;;4025636;29;20057;-86
2023/04/27 09:55:01;;;;;;;5.47;2.42;;;12.90;85.90;;;;;;4008186;29;20137;-87
2023/04/27 09:57:32;;;;;;;7.93;2.80;;;12.90;85.50;;;;;;4026620;29;20053;-87
2023/04/27 09:59:38;;;;;;;7.20;2.38;;;12.90;84.90;;;;;;4027864;29;20067;-87
2023/04/27 10:01:53;;;;;;;4.57;2.33;;;12.90;86.00;;;;;;4041368;29;20047;-85
2023/04/27 10:04:23;;;;;;;6.53;2.40;;;13.00;85.20;;;;;;4023256;29;20057;-87
2023/04/27 10:07:02;;;;;;;4.43;2.20;;;13.00;84.30;;;;;;4008052;29;20050;-86
2023/04/27 10:09:05;;;;;;;4.25;2.55;;;13.70;84.10;;;;;;4022596;29;20488;-86
2023/04/27 10:11:18;;;;;;;4.65;1.85;;;12.70;85.90;;;;;;4025110;29;20053;-87
2023/04/27 10:13:23;;;;;;;4.13;2.17;;;12.70;85.60;;;;;;4017288;29;20462;-86
2023/04/27 10:15:27;;;;;;;4.20;2.63;;;12.00;84.30;;;;;;4038242;29;20049;-87
2023/04/27 10:17:35;;;;;;;5.43;2.42;;;12.20;83.90;;;;;;4042454;29;20084;-87
2023/04/27 10:19:36;;;;;;;4.32;2.28;;;11.30;79.60;;;;;;4017849;29;20094;-86
2023/04/27 10:22:01;;;;;;;8.32;2.50;;;12.00;83.50;;;;;;4039974;29;20052;-87
2023/04/27 10:24:08;;;;;;;5.40;2.78;;;11.80;84.80;;;;;;4024300;29;20411;-86
2023/04/27 10:26:09;;;;;;;5.80;2.60;;;11.10;85.20;;;;;;4041000;29;20041;-87
2023/04/27 10:28:16;;;;;;;3.72;1.95;;;11.90;86.50;;;;;;4038954;29;20049;-86
2023/04/27 10:30:18;;;;;;;7.28;2.20;;;11.90;85.40;;;;;;4026140;29;20065;-86
2023/04/27 10:32:24;;;;;;;9.32;2.25;;;11.90;85.30;;;;;;4008523;29;20432;-86
2023/04/27 10:34:27;;;;;;;5.45;2.70;;;11.80;85.30;;;;;;4026584;29;20050;-86
2023/04/27 10:36:37;;;;;;;4.45;2.10;;;11.60;82.60;;;;;;4009264;29;20066;-86
2023/04/27 10:38:40;;;;;;;3.40;2.50;;;11.50;81.60;;;;;;4008417;29;20102;-87
2023/04/27 10:41:04;;;;;;;6.05;2.72;;;11.50;83.70;;;;;;4043325;29;20086;-85
2023/04/27 10:43:12;;;;;;;6.63;2.50;;;11.40;83.90;;;;;;4036704;29;20050;-85
2023/04/27 10:45:25;;;;;;;5.78;2.30;;;11.70;85.20;;;;;;4025047;29;20050;-86